Cliffe, United Kingdom
Current Conditions -  °F | °C
As of 2:20 PM on Monday 20 Oct 2014 (Local Time) from EGMC Reporting Station
Few Clouds Few Clouds  
Wind Chill: 63°   Ceiling: Unl
Heat Index: 63°   Visibility: 6mi
Dew Point: 50°   Wind: 15mph
Humidity: 63%   Direction: 240°WSW
Pressure: 29.97"   Gusts: NA
Location:  51.46°N, 0.5°E
Report Text: EGMC 201320Z 24013KT 9999 FEW034 17/10 Q1015
Loading
Personal Weather Stations






























Interactive Weather Map
Tropical Storm Tracking
New forecast layout! Learn more

10-Day Weather Forecast

Advertisements
Track Severe Weather on mobile